createdAt,value
2023-07-15T00:01:24.496Z,55.97
2023-07-15T00:03:53.515Z,55.64
2023-07-15T00:06:22.377Z,55.44
2023-07-15T00:08:49.802Z,55.39
2023-07-15T00:11:35.085Z,55.25
2023-07-15T00:14:03.262Z,55.06
2023-07-15T00:16:31.706Z,55.02
2023-07-15T00:18:59.501Z,54.75
2023-07-15T00:21:31.616Z,54.77
2023-07-15T00:23:59.872Z,54.87
2023-07-15T00:26:30.164Z,54.83
2023-07-15T00:28:57.145Z,54.55
2023-07-15T00:31:24.404Z,54.72
2023-07-15T00:33:51.075Z,54.88
2023-07-15T00:36:18.127Z,54.81
2023-07-15T00:38:45.277Z,54.74
2023-07-15T00:41:21.851Z,55.08
2023-07-15T00:43:54.366Z,54.72
2023-07-15T00:46:22.937Z,54.90
2023-07-15T00:48:55.676Z,54.82
2023-07-15T00:51:23.010Z,54.91
2023-07-15T00:53:50.956Z,54.94
2023-07-15T00:56:18.005Z,54.85
2023-07-15T00:58:44.519Z,54.60
2023-07-15T01:01:14.330Z,54.67
2023-07-15T01:03:45.514Z,54.88
2023-07-15T01:06:13.348Z,54.85
2023-07-15T01:08:40.969Z,54.90
2023-07-15T01:11:08.078Z,55.07
2023-07-15T01:13:35.411Z,55.05
2023-07-15T01:16:02.202Z,55.05
2023-07-15T01:18:30.040Z,55.06
2023-07-15T01:21:02.901Z,55.01
2023-07-15T01:23:30.680Z,54.86
2023-07-15T01:25:58.016Z,54.94
2023-07-15T01:28:24.956Z,54.86
2023-07-15T01:30:52.032Z,55.12
2023-07-15T01:33:19.909Z,55.10
2023-07-15T01:35:48.960Z,54.90
2023-07-15T01:38:16.280Z,55.04
2023-07-15T01:40:43.810Z,55.16
2023-07-15T01:43:11.261Z,55.33
2023-07-15T01:45:38.680Z,55.49
2023-07-15T01:48:05.960Z,55.59
2023-07-15T01:50:32.590Z,55.77
2023-07-15T01:52:59.495Z,55.79
2023-07-15T01:55:25.943Z,55.85
2023-07-15T01:57:52.430Z,56.01
2023-07-15T02:00:18.949Z,55.94
2023-07-15T02:02:45.536Z,55.86
2023-07-15T02:05:12.109Z,55.90
2023-07-15T02:07:38.759Z,56.10
2023-07-15T02:10:05.603Z,55.95
2023-07-15T02:12:32.042Z,56.02
2023-07-15T02:14:58.508Z,56.19
2023-07-15T02:17:25.064Z,56.43
2023-07-15T02:19:51.521Z,56.52
2023-07-15T02:22:17.929Z,56.64
2023-07-15T02:24:44.367Z,56.72
2023-07-15T02:27:11.913Z,56.86
2023-07-15T02:29:38.463Z,56.85
2023-07-15T02:32:05.792Z,56.97
2023-07-15T02:34:32.214Z,56.90
2023-07-15T02:36:58.619Z,57.17
2023-07-15T02:39:25.084Z,56.88
2023-07-15T02:41:51.574Z,57.00
2023-07-15T02:44:18.027Z,57.01
2023-07-15T02:46:44.465Z,57.10
2023-07-15T02:49:11.012Z,57.13
2023-07-15T02:51:37.444Z,57.19
2023-07-15T02:54:03.966Z,57.44
2023-07-15T02:56:30.563Z,57.37
2023-07-15T02:58:57.305Z,57.31
2023-07-15T03:01:23.749Z,57.64
2023-07-15T03:03:50.253Z,57.64
2023-07-15T03:06:16.943Z,57.90
2023-07-15T03:08:46.058Z,57.76
2023-07-15T03:11:13.634Z,57.90
2023-07-15T03:13:41.216Z,57.95
2023-07-15T03:16:07.799Z,57.99
2023-07-15T03:18:34.332Z,58.07
2023-07-15T03:21:00.775Z,58.39
2023-07-15T03:23:27.421Z,58.55
2023-07-15T03:25:53.818Z,58.56
2023-07-15T03:28:20.280Z,58.79
2023-07-15T03:30:49.575Z,58.84
2023-07-15T03:33:16.130Z,58.77
2023-07-15T03:35:46.796Z,58.86
2023-07-15T03:38:13.237Z,58.97
2023-07-15T03:40:39.777Z,59.10
2023-07-15T03:43:06.180Z,59.15
2023-07-15T03:45:32.664Z,59.47
2023-07-15T03:47:59.130Z,59.14
2023-07-15T03:50:25.675Z,59.08
2023-07-15T03:52:53.630Z,59.25
2023-07-15T03:55:20.110Z,59.38
2023-07-15T03:57:46.592Z,59.66
2023-07-15T04:00:18.892Z,59.79
2023-07-15T04:02:50.822Z,59.92
2023-07-15T04:05:17.804Z,59.88
2023-07-15T04:07:45.152Z,60.17
2023-07-15T04:10:12.438Z,60.52
2023-07-15T04:12:39.669Z,60.67
2023-07-15T04:15:06.893Z,60.44
2023-07-15T04:17:33.941Z,60.97
2023-07-15T04:20:00.470Z,60.98
2023-07-15T04:22:26.923Z,61.35
2023-07-15T04:24:53.422Z,61.23
2023-07-15T04:27:19.817Z,61.35
2023-07-15T04:29:46.276Z,61.23
2023-07-15T04:32:12.712Z,61.52
2023-07-15T04:34:39.115Z,61.41
2023-07-15T04:37:05.683Z,61.80
2023-07-15T04:39:32.181Z,61.61
2023-07-15T04:41:58.575Z,61.86
2023-07-15T04:44:25.872Z,62.01
2023-07-15T04:46:53.547Z,62.34
2023-07-15T04:49:20.106Z,62.17
2023-07-15T04:51:46.822Z,62.24
2023-07-15T04:54:13.586Z,62.50
2023-07-15T04:56:40.953Z,62.38
2023-07-15T04:59:08.422Z,62.37
2023-07-15T05:01:35.108Z,62.39
2023-07-15T05:04:03.346Z,62.63
2023-07-15T05:06:30.603Z,62.64
2023-07-15T05:08:57.193Z,62.38
2023-07-15T05:11:27.005Z,62.70
2023-07-15T05:13:53.870Z,62.84
2023-07-15T05:16:21.348Z,62.89
2023-07-15T05:18:48.859Z,63.05
2023-07-15T05:21:16.190Z,62.92
2023-07-15T05:23:43.035Z,62.70
2023-07-15T05:26:09.943Z,62.98
2023-07-15T05:28:36.553Z,62.81
2023-07-15T05:31:04.099Z,62.81
2023-07-15T05:33:31.401Z,62.58
2023-07-15T05:35:58.567Z,62.70
2023-07-15T05:38:26.298Z,62.62
2023-07-15T05:40:56.555Z,62.64
2023-07-15T05:43:23.007Z,62.67
2023-07-15T05:45:50.764Z,62.52
2023-07-15T05:48:17.277Z,62.39
2023-07-15T05:50:43.798Z,62.16
2023-07-15T05:53:11.755Z,61.80
2023-07-15T05:55:38.287Z,61.64
2023-07-15T05:58:11.200Z,61.48
2023-07-15T06:00:40.099Z,61.40
2023-07-15T06:03:07.192Z,61.60
2023-07-15T06:05:33.796Z,61.71
2023-07-15T06:08:00.513Z,61.76
2023-07-15T06:10:27.001Z,61.49
2023-07-15T06:12:53.455Z,61.01
2023-07-15T06:15:20.009Z,60.79
2023-07-15T06:17:46.574Z,60.63
2023-07-15T06:20:13.203Z,60.50
2023-07-15T06:22:39.653Z,60.72
2023-07-15T06:25:06.632Z,60.62
2023-07-15T06:27:33.162Z,60.86
2023-07-15T06:29:59.591Z,60.86
2023-07-15T06:32:26.138Z,60.57
2023-07-15T06:34:52.660Z,60.61
2023-07-15T06:37:19.204Z,60.96
2023-07-15T06:39:45.727Z,60.61
2023-07-15T06:42:12.225Z,60.26
2023-07-15T06:44:39.384Z,59.80
2023-07-15T06:47:07.120Z,60.13
2023-07-15T06:49:33.764Z,60.33
2023-07-15T06:52:00.278Z,59.90
2023-07-15T06:54:26.827Z,59.95
2023-07-15T06:56:53.574Z,59.69
2023-07-15T06:59:20.331Z,59.92
2023-07-15T07:01:47.593Z,60.03
2023-07-15T07:04:16.355Z,60.08
2023-07-15T07:06:43.727Z,59.37
2023-07-15T07:09:10.708Z,59.37
2023-07-15T07:11:37.756Z,59.71
2023-07-15T07:14:05.643Z,59.10
2023-07-15T07:16:32.622Z,59.13
2023-07-15T07:19:00.106Z,58.80
2023-07-15T07:21:29.001Z,59.35
2023-07-15T07:23:56.977Z,58.48
2023-07-15T07:28:59.857Z,58.71
2023-07-15T07:31:26.853Z,58.90
2023-07-15T07:33:53.895Z,59.03
2023-07-15T07:36:20.865Z,58.42
2023-07-15T07:38:48.107Z,58.28
2023-07-15T07:41:18.062Z,58.44
2023-07-15T07:43:45.486Z,58.35
2023-07-15T07:46:12.691Z,58.19
2023-07-15T07:48:39.692Z,57.90
2023-07-15T07:51:07.344Z,57.53
2023-07-15T07:53:34.383Z,57.49
2023-07-15T07:56:01.421Z,56.95
2023-07-15T07:58:28.466Z,56.97
2023-07-15T08:00:55.453Z,56.54
2023-07-15T08:03:22.407Z,56.28
2023-07-15T08:05:49.963Z,56.01
2023-07-15T08:08:17.522Z,56.28
2023-07-15T08:10:44.886Z,55.81
2023-07-15T08:13:11.908Z,56.03
2023-07-15T08:15:38.995Z,55.73
2023-07-15T08:18:07.030Z,55.87
2023-07-15T08:20:36.314Z,56.06
2023-07-15T08:23:03.759Z,55.19
2023-07-15T08:25:31.012Z,54.91
2023-07-15T08:27:59.016Z,54.50
2023-07-15T08:30:25.906Z,54.47
2023-07-15T08:32:52.712Z,54.62
2023-07-15T08:35:19.851Z,54.18
2023-07-15T08:40:26.718Z,54.75
2023-07-15T08:42:54.659Z,53.47
2023-07-15T08:45:25.705Z,54.43
2023-07-15T08:47:54.336Z,53.78
2023-07-15T08:50:21.400Z,52.96
2023-07-15T08:52:48.444Z,53.71
2023-07-15T08:55:17.769Z,53.83
2023-07-15T08:57:45.424Z,54.07
2023-07-15T09:00:13.600Z,52.75
2023-07-15T09:02:40.862Z,53.26
2023-07-15T09:05:09.404Z,52.91
2023-07-15T09:10:23.773Z,52.50
2023-07-15T09:12:55.611Z,52.56
2023-07-15T09:15:23.060Z,52.07
2023-07-15T09:20:47.918Z,51.59
2023-07-15T09:23:15.347Z,51.54
2023-07-15T09:25:54.706Z,51.06
2023-07-15T09:28:22.375Z,50.98
2023-07-15T09:30:49.369Z,50.85
2023-07-15T09:33:36.952Z,50.25
2023-07-15T09:36:04.061Z,50.45
2023-07-15T09:41:13.929Z,50.69
2023-07-15T09:43:48.062Z,49.41
2023-07-15T09:46:18.541Z,49.26
2023-07-15T09:48:51.650Z,48.82
2023-07-15T09:51:20.003Z,48.94
2023-07-15T09:53:53.399Z,47.69
2023-07-15T09:59:19.626Z,47.70
2023-07-15T10:01:49.617Z,47.06
2023-07-15T10:04:26.257Z,47.35
2023-07-15T10:09:37.192Z,47.58
2023-07-15T10:12:05.769Z,47.60
2023-07-15T10:14:35.231Z,47.49
2023-07-15T10:17:16.508Z,46.42
2023-07-15T10:19:51.669Z,45.83
2023-07-15T10:22:20.257Z,45.33
2023-07-15T10:25:10.255Z,44.81
2023-07-15T10:51:48.588Z,42.68
2023-07-15T10:54:28.410Z,42.22
2023-07-15T10:56:55.585Z,42.95
2023-07-15T10:59:24.372Z,42.89
2023-07-15T11:01:51.080Z,43.13
2023-07-15T11:04:20.722Z,42.20
2023-07-15T11:06:47.544Z,42.50
2023-07-15T11:09:22.180Z,41.54
2023-07-15T11:11:50.255Z,41.65
2023-07-15T11:14:23.157Z,41.66
2023-07-15T11:23:33.552Z,41.73
2023-07-15T11:26:09.684Z,41.91
2023-07-15T11:28:46.326Z,41.27
2023-07-15T11:31:12.941Z,41.72
2023-07-15T11:33:39.767Z,41.70
2023-07-15T11:36:06.636Z,41.62
2023-07-15T11:38:35.097Z,41.51
2023-07-15T11:41:02.022Z,40.42
2023-07-15T11:43:31.283Z,40.89
2023-07-15T11:46:02.285Z,40.78
2023-07-15T11:48:33.812Z,39.61
2023-07-15T11:51:09.843Z,39.33
2023-07-15T11:53:42.943Z,38.93
2023-07-15T11:56:09.635Z,39.70
2023-07-15T11:58:39.187Z,39.52
2023-07-15T12:01:07.069Z,38.29
2023-07-15T12:03:34.353Z,38.45
2023-07-15T12:06:00.980Z,38.04
2023-07-15T12:08:27.638Z,37.97
2023-07-15T12:10:58.073Z,37.61
2023-07-15T12:13:27.227Z,37.90
2023-07-15T12:15:54.135Z,38.19
2023-07-15T12:18:20.631Z,37.72
2023-07-15T12:20:48.161Z,37.74
2023-07-15T12:23:14.794Z,36.95
2023-07-15T12:25:41.267Z,37.11
2023-07-15T12:28:07.729Z,37.21
2023-07-15T12:30:34.475Z,36.18
2023-07-15T12:33:01.003Z,35.91
2023-07-15T12:35:27.606Z,35.06
2023-07-15T12:37:54.644Z,35.00
2023-07-15T12:40:21.498Z,35.85
2023-07-15T12:42:47.979Z,36.24
2023-07-15T12:45:17.128Z,36.56
2023-07-15T12:47:43.633Z,35.77
2023-07-15T12:50:10.531Z,35.74
2023-07-15T12:52:37.067Z,36.30
2023-07-15T12:55:06.101Z,36.95
2023-07-15T12:57:32.604Z,35.81
2023-07-15T12:59:59.067Z,36.11
2023-07-15T13:02:25.650Z,36.08
2023-07-15T13:04:53.213Z,36.00
2023-07-15T13:07:23.434Z,36.96
2023-07-15T13:09:50.073Z,36.37
2023-07-15T13:12:16.545Z,36.77
2023-07-15T13:14:44.393Z,36.50
2023-07-15T13:17:10.895Z,36.73
2023-07-15T13:19:37.330Z,36.81
2023-07-15T13:22:04.009Z,37.02
2023-07-15T13:24:30.488Z,36.34
2023-07-15T13:26:56.929Z,35.88
2023-07-15T13:29:24.899Z,35.72
2023-07-15T13:31:51.654Z,35.94
2023-07-15T13:34:18.614Z,35.69
2023-07-15T13:36:47.035Z,35.77
2023-07-15T13:39:33.398Z,35.36
2023-07-15T13:42:00.029Z,36.02
2023-07-15T13:44:28.187Z,35.63
2023-07-15T13:46:55.902Z,35.43
2023-07-15T13:49:22.455Z,35.34
2023-07-15T13:51:49.180Z,35.34
2023-07-15T13:54:16.660Z,35.68
2023-07-15T13:56:43.140Z,34.84
2023-07-15T13:59:09.639Z,35.13
2023-07-15T14:01:36.148Z,34.88
2023-07-15T14:04:02.945Z,35.16
2023-07-15T14:06:29.718Z,34.97
2023-07-15T14:08:57.201Z,34.69
2023-07-15T14:11:25.051Z,34.75
2023-07-15T14:13:51.609Z,34.97
2023-07-15T14:16:18.230Z,35.13
2023-07-15T14:18:45.396Z,34.45
2023-07-15T14:21:13.821Z,34.86
2023-07-15T14:23:40.784Z,35.04
2023-07-15T14:26:07.416Z,34.25
2023-07-15T14:28:33.896Z,34.57
2023-07-15T14:31:00.410Z,35.11
2023-07-15T14:33:26.968Z,33.75
2023-07-15T14:35:53.459Z,34.07
2023-07-15T14:38:20.230Z,33.70
2023-07-15T14:40:46.736Z,34.16
2023-07-15T14:43:13.254Z,34.44
2023-07-15T14:45:39.757Z,34.09
2023-07-15T14:48:06.541Z,34.26
2023-07-15T14:50:33.070Z,33.89
2023-07-15T14:53:02.153Z,33.85
2023-07-15T14:55:28.924Z,33.75
2023-07-15T14:57:55.523Z,33.93
2023-07-15T15:00:23.465Z,33.66
2023-07-15T15:02:50.117Z,33.18
2023-07-15T15:05:16.866Z,33.96
2023-07-15T15:07:44.795Z,32.83
2023-07-15T15:10:12.522Z,33.54
2023-07-15T15:12:41.044Z,33.79
2023-07-15T15:15:08.171Z,33.76
2023-07-15T15:17:34.715Z,33.34
2023-07-15T15:20:01.529Z,33.27
2023-07-15T15:22:28.062Z,33.28
2023-07-15T15:24:54.610Z,33.30
2023-07-15T15:27:21.094Z,32.43
2023-07-15T15:29:48.806Z,33.02
2023-07-15T15:32:15.848Z,33.50
2023-07-15T15:34:43.402Z,33.03
2023-07-15T15:37:09.912Z,32.89
2023-07-15T15:39:36.405Z,32.52
2023-07-15T15:42:02.941Z,32.61
2023-07-15T15:44:29.402Z,32.70
2023-07-15T15:46:59.686Z,33.39
2023-07-15T15:49:26.228Z,32.46
2023-07-15T15:51:52.835Z,32.10
2023-07-15T15:54:19.327Z,31.93
2023-07-15T15:56:47.111Z,31.75
2023-07-15T15:59:13.686Z,31.72
2023-07-15T16:01:41.245Z,31.79
2023-07-15T16:04:07.845Z,32.27
2023-07-15T16:06:34.850Z,31.90
2023-07-15T16:09:01.373Z,31.34
2023-07-15T16:11:27.815Z,31.84
2023-07-15T16:13:54.382Z,31.86
2023-07-15T16:16:20.855Z,31.65
2023-07-15T16:18:47.373Z,31.65
2023-07-15T16:21:14.031Z,31.49
2023-07-15T16:23:40.741Z,31.67
2023-07-15T16:26:07.194Z,32.01
2023-07-15T16:28:33.789Z,31.95
2023-07-15T16:31:02.061Z,32.13
2023-07-15T16:33:28.880Z,31.78
2023-07-15T16:35:55.386Z,31.66
2023-07-15T16:38:23.183Z,31.89
2023-07-15T16:40:50.879Z,31.71
2023-07-15T16:43:17.275Z,30.69
2023-07-15T16:45:43.744Z,30.86
2023-07-15T16:48:10.193Z,30.76
2023-07-15T16:50:37.014Z,30.11
2023-07-15T16:53:04.348Z,30.27
2023-07-15T16:55:30.752Z,31.09
2023-07-15T16:57:57.257Z,31.77
2023-07-15T17:00:23.724Z,31.92
2023-07-15T17:02:50.262Z,31.45
2023-07-15T17:05:17.131Z,31.29
2023-07-15T17:07:43.636Z,31.65
2023-07-15T17:10:10.325Z,31.96
2023-07-15T17:12:36.748Z,31.94
2023-07-15T17:15:05.561Z,31.92
2023-07-15T17:17:32.044Z,32.65
2023-07-15T17:19:58.623Z,32.11
2023-07-15T17:22:25.072Z,32.71
2023-07-15T17:24:54.237Z,32.43
2023-07-15T17:27:20.903Z,32.03
2023-07-15T17:29:47.418Z,31.83
2023-07-15T17:32:14.370Z,32.15
2023-07-15T17:34:40.794Z,32.21
2023-07-15T17:37:07.346Z,31.66
2023-07-15T17:39:34.894Z,31.96
2023-07-15T17:42:03.065Z,31.61
2023-07-15T17:44:30.039Z,32.20
2023-07-15T17:46:56.807Z,32.00
2023-07-15T17:49:23.277Z,32.09
2023-07-15T17:51:49.747Z,31.61
2023-07-15T17:54:16.194Z,32.32
2023-07-15T17:56:42.690Z,32.89
2023-07-15T17:59:09.143Z,32.77
2023-07-15T18:01:35.686Z,33.16
2023-07-15T18:04:05.861Z,33.24
2023-07-15T18:06:32.786Z,33.09
2023-07-15T18:08:59.688Z,33.16
2023-07-15T18:11:26.390Z,33.45
2023-07-15T18:13:52.857Z,33.71
2023-07-15T18:16:20.583Z,33.61
2023-07-15T18:18:47.133Z,33.95
2023-07-15T18:21:14.063Z,33.88
2023-07-15T18:23:40.887Z,34.11
2023-07-15T18:26:07.396Z,34.25
2023-07-15T18:28:34.086Z,34.01
2023-07-15T18:31:00.548Z,33.97
2023-07-15T18:33:27.107Z,34.26
2023-07-15T18:35:53.638Z,34.50
2023-07-15T18:38:20.100Z,34.64
2023-07-15T18:40:47.435Z,34.68
2023-07-15T18:43:14.147Z,35.07
2023-07-15T18:45:41.797Z,35.12
2023-07-15T18:48:08.356Z,35.41
2023-07-15T18:50:34.828Z,35.63
2023-07-15T18:53:01.376Z,35.85
2023-07-15T18:55:28.745Z,36.01
2023-07-15T18:57:58.143Z,36.08
2023-07-15T19:00:25.657Z,36.54
2023-07-15T19:02:52.253Z,36.51
2023-07-15T19:05:18.793Z,36.82
2023-07-15T19:07:45.272Z,37.02
2023-07-15T19:10:12.049Z,37.26
2023-07-15T19:12:38.545Z,37.03
2023-07-15T19:15:05.488Z,37.22
2023-07-15T19:17:32.008Z,37.46
2023-07-15T19:19:59.887Z,37.60
2023-07-15T19:25:19.485Z,39.77
2023-07-15T19:35:54.516Z,42.36
2023-07-15T19:42:36.395Z,42.46
2023-07-15T19:45:15.044Z,42.25
2023-07-15T19:47:41.631Z,41.70
2023-07-15T19:50:08.712Z,42.71
2023-07-15T19:52:35.480Z,43.85
2023-07-15T19:55:02.073Z,43.49
2023-07-15T20:00:19.843Z,39.14
2023-07-15T20:02:46.505Z,39.38
2023-07-15T20:05:13.274Z,39.34
2023-07-15T20:10:19.614Z,38.79
2023-07-15T20:12:46.096Z,38.42
2023-07-15T20:15:13.995Z,38.34
2023-07-15T20:57:40.798Z,41.64
2023-07-15T21:00:48.653Z,42.11
2023-07-15T21:03:16.803Z,42.34
2023-07-15T21:05:43.426Z,42.24
2023-07-15T21:08:09.924Z,42.52
2023-07-15T21:10:36.662Z,42.57
2023-07-15T21:13:03.118Z,42.36
2023-07-15T21:15:30.031Z,42.48
2023-07-15T21:17:56.597Z,42.72
2023-07-15T21:20:23.093Z,43.10
2023-07-15T21:22:49.586Z,43.00
2023-07-15T21:25:16.084Z,43.01
2023-07-15T21:27:43.547Z,43.03
2023-07-15T21:30:10.332Z,43.14
2023-07-15T21:32:37.090Z,43.73
2023-07-15T21:35:04.974Z,43.85
2023-07-15T21:37:31.472Z,43.66
2023-07-15T21:39:58.166Z,43.94
2023-07-15T21:42:24.628Z,43.74
2023-07-15T21:44:51.249Z,44.10
2023-07-15T21:47:17.831Z,44.20
2023-07-15T21:49:44.377Z,44.41
2023-07-15T21:52:10.821Z,44.76
2023-07-15T21:54:37.277Z,44.77
2023-07-15T21:57:03.973Z,44.84
2023-07-15T21:59:30.554Z,44.90
2023-07-15T22:01:57.020Z,45.02
2023-07-15T22:04:23.499Z,45.02
2023-07-15T22:12:10.785Z,45.73
2023-07-15T22:14:38.018Z,45.50
2023-07-15T22:17:06.285Z,46.21
2023-07-15T22:19:33.579Z,46.92
2023-07-15T22:22:00.721Z,47.27
2023-07-15T22:24:27.740Z,47.62
2023-07-15T22:26:54.612Z,48.21
2023-07-15T22:29:21.489Z,49.00
2023-07-15T22:31:48.469Z,49.89
2023-07-15T22:34:15.596Z,50.82
2023-07-15T22:36:42.361Z,51.21
2023-07-15T22:39:09.698Z,51.67
2023-07-15T22:41:36.787Z,52.57
2023-07-15T22:44:03.791Z,53.87
2023-07-15T22:46:31.009Z,54.16
2023-07-15T22:48:57.780Z,55.12
2023-07-15T22:51:24.929Z,55.69
2023-07-15T22:53:51.755Z,56.02
2023-07-15T22:56:20.108Z,56.29
2023-07-15T22:58:46.939Z,56.95
2023-07-15T23:01:15.084Z,57.06
2023-07-15T23:03:42.944Z,56.97
2023-07-15T23:06:10.309Z,57.18
2023-07-15T23:11:30.802Z,57.77
2023-07-15T23:13:57.659Z,58.44
2023-07-15T23:16:25.080Z,58.35
2023-07-15T23:18:52.272Z,58.75
2023-07-15T23:21:19.210Z,58.47
2023-07-15T23:23:46.134Z,58.46
2023-07-15T23:26:13.641Z,58.53
2023-07-15T23:28:40.986Z,58.59
2023-07-15T23:31:07.933Z,58.50
2023-07-15T23:33:36.302Z,59.13
2023-07-15T23:36:03.279Z,59.13
2023-07-15T23:38:30.229Z,59.31
2023-07-15T23:40:57.168Z,59.52
2023-07-15T23:43:24.401Z,59.47
2023-07-15T23:45:51.472Z,59.37
2023-07-15T23:48:18.604Z,59.68
2023-07-15T23:50:45.735Z,59.72
2023-07-15T23:53:14.522Z,60.27
2023-07-15T23:55:41.601Z,60.11
2023-07-15T23:58:08.646Z,59.98
